sensor_id;sensor_type;location;lat;lon;timestamp;P1;durP1;ratioP1;P2;durP2;ratioP2
70071;SDS011;57434;42.794;23.302;2022-09-09T01:34:52;11.07;;;7.20;;
70071;SDS011;57434;42.794;23.302;2022-09-09T01:37:18;10.90;;;7.70;;
70071;SDS011;57434;42.794;23.302;2022-09-09T01:39:44;10.37;;;7.70;;
70071;SDS011;57434;42.794;23.302;2022-09-09T01:42:13;11.38;;;8.25;;
70071;SDS011;57434;42.794;23.302;2022-09-09T01:44:41;12.40;;;8.68;;
70071;SDS011;57434;42.794;23.302;2022-09-09T01:47:07;12.23;;;8.82;;
70071;SDS011;57434;42.794;23.302;2022-09-09T01:49:34;12.88;;;8.60;;
70071;SDS011;57434;42.794;23.302;2022-09-09T01:52:00;13.30;;;8.70;;
70071;SDS011;57434;42.794;23.302;2022-09-09T01:54:30;12.88;;;8.82;;
70071;SDS011;57434;42.794;23.302;2022-09-09T01:57:18;12.57;;;9.07;;
70071;SDS011;57434;42.794;23.302;2022-09-09T02:05:40;11.90;;;8.60;;
70071;SDS011;57434;42.794;23.302;2022-09-09T02:08:33;16.80;;;8.80;;
70071;SDS011;57434;42.794;23.302;2022-09-09T02:11:12;16.58;;;9.50;;
70071;SDS011;57434;42.794;23.302;2022-09-09T02:13:40;19.67;;;8.38;;
70071;SDS011;57434;42.794;23.302;2022-09-09T02:16:08;12.68;;;8.35;;
70071;SDS011;57434;42.794;23.302;2022-09-09T02:18:48;15.20;;;8.43;;
70071;SDS011;57434;42.794;23.302;2022-09-09T02:21:38;14.35;;;8.23;;
70071;SDS011;57434;42.794;23.302;2022-09-09T02:24:07;14.85;;;8.93;;
70071;SDS011;57434;42.794;23.302;2022-09-09T02:26:37;11.18;;;8.23;;
70071;SDS011;57434;42.794;23.302;2022-09-09T02:29:08;15.13;;;8.57;;
70071;SDS011;57434;42.794;23.302;2022-09-09T02:31:56;14.00;;;9.37;;
70071;SDS011;57434;42.794;23.302;2022-09-09T02:34:27;13.65;;;9.27;;
70071;SDS011;57434;42.794;23.302;2022-09-09T02:36:55;12.75;;;8.43;;
70071;SDS011;57434;42.794;23.302;2022-09-09T02:39:25;12.30;;;8.32;;
70071;SDS011;57434;42.794;23.302;2022-09-09T02:41:51;14.35;;;8.85;;
70071;SDS011;57434;42.794;23.302;2022-09-09T02:44:18;13.33;;;9.07;;
70071;SDS011;57434;42.794;23.302;2022-09-09T02:46:58;13.75;;;9.07;;
70071;SDS011;57434;42.794;23.302;2022-09-09T02:52:41;13.27;;;8.23;;
70071;SDS011;57434;42.794;23.302;2022-09-09T02:55:35;14.55;;;8.30;;
70071;SDS011;57434;42.794;23.302;2022-09-09T02:58:02;14.30;;;9.13;;
70071;SDS011;57434;42.794;23.302;2022-09-09T03:00:37;13.80;;;9.10;;
70071;SDS011;57434;42.794;23.302;2022-09-09T03:07:01;15.02;;;9.40;;
70071;SDS011;57434;42.794;23.302;2022-09-09T03:09:48;15.02;;;9.77;;
70071;SDS011;57434;42.794;23.302;2022-09-09T03:12:14;16.03;;;10.53;;
70071;SDS011;57434;42.794;23.302;2022-09-09T03:14:41;18.08;;;10.43;;
70071;SDS011;57434;42.794;23.302;2022-09-09T03:17:10;15.48;;;9.00;;
70071;SDS011;57434;42.794;23.302;2022-09-09T03:19:37;15.77;;;9.80;;
70071;SDS011;57434;42.794;23.302;2022-09-09T03:22:09;16.27;;;9.27;;
70071;SDS011;57434;42.794;23.302;2022-09-09T03:24:36;15.27;;;8.87;;
70071;SDS011;57434;42.794;23.302;2022-09-09T03:27:05;15.88;;;9.45;;
70071;SDS011;57434;42.794;23.302;2022-09-09T03:29:32;13.23;;;8.98;;
70071;SDS011;57434;42.794;23.302;2022-09-09T03:31:58;16.85;;;9.15;;
70071;SDS011;57434;42.794;23.302;2022-09-09T03:34:24;15.00;;;9.40;;
70071;SDS011;57434;42.794;23.302;2022-09-09T03:36:50;12.05;;;8.80;;
70071;SDS011;57434;42.794;23.302;2022-09-09T03:39:16;14.98;;;8.52;;
70071;SDS011;57434;42.794;23.302;2022-09-09T03:41:42;14.40;;;8.40;;
70071;SDS011;57434;42.794;23.302;2022-09-09T03:44:10;12.30;;;8.83;;
70071;SDS011;57434;42.794;23.302;2022-09-09T03:46:36;16.35;;;9.25;;
70071;SDS011;57434;42.794;23.302;2022-09-09T03:49:03;17.63;;;10.55;;
70071;SDS011;57434;42.794;23.302;2022-09-09T03:51:29;15.10;;;9.75;;
70071;SDS011;57434;42.794;23.302;2022-09-09T03:53:55;16.17;;;9.77;;
70071;SDS011;57434;42.794;23.302;2022-09-09T03:56:23;14.13;;;9.75;;
70071;SDS011;57434;42.794;23.302;2022-09-09T03:58:49;14.93;;;9.35;;
70071;SDS011;57434;42.794;23.302;2022-09-09T04:01:15;13.15;;;8.73;;
70071;SDS011;57434;42.794;23.302;2022-09-09T04:03:43;13.47;;;9.27;;
70071;SDS011;57434;42.794;23.302;2022-09-09T04:06:10;15.95;;;8.77;;
70071;SDS011;57434;42.794;23.302;2022-09-09T04:08:38;16.30;;;9.80;;
70071;SDS011;57434;42.794;23.302;2022-09-09T04:11:05;18.17;;;10.20;;
70071;SDS011;57434;42.794;23.302;2022-09-09T04:13:37;13.93;;;9.40;;
70071;SDS011;57434;42.794;23.302;2022-09-09T04:16:07;13.77;;;9.23;;
70071;SDS011;57434;42.794;23.302;2022-09-09T04:18:35;13.77;;;9.20;;
70071;SDS011;57434;42.794;23.302;2022-09-09T04:21:01;15.23;;;9.88;;
70071;SDS011;57434;42.794;23.302;2022-09-09T04:23:31;14.13;;;9.00;;
70071;SDS011;57434;42.794;23.302;2022-09-09T04:26:00;15.57;;;9.65;;
70071;SDS011;57434;42.794;23.302;2022-09-09T04:28:28;14.17;;;9.13;;
70071;SDS011;57434;42.794;23.302;2022-09-09T04:30:56;17.65;;;9.65;;
70071;SDS011;57434;42.794;23.302;2022-09-09T04:33:29;14.00;;;9.52;;
70071;SDS011;57434;42.794;23.302;2022-09-09T04:35:58;13.40;;;7.88;;
70071;SDS011;57434;42.794;23.302;2022-09-09T04:38:24;17.98;;;11.13;;
70071;SDS011;57434;42.794;23.302;2022-09-09T04:40:51;14.43;;;9.30;;
70071;SDS011;57434;42.794;23.302;2022-09-09T04:43:19;28.00;;;14.77;;
70071;SDS011;57434;42.794;23.302;2022-09-09T04:45:49;22.65;;;11.82;;
70071;SDS011;57434;42.794;23.302;2022-09-09T04:48:19;16.02;;;9.13;;
70071;SDS011;57434;42.794;23.302;2022-09-09T04:50:54;14.02;;;9.52;;
70071;SDS011;57434;42.794;23.302;2022-09-09T04:53:26;16.97;;;9.47;;
70071;SDS011;57434;42.794;23.302;2022-09-09T04:56:03;15.30;;;10.05;;
70071;SDS011;57434;42.794;23.302;2022-09-09T04:58:29;14.30;;;9.57;;
70071;SDS011;57434;42.794;23.302;2022-09-09T05:01:02;14.27;;;9.70;;
70071;SDS011;57434;42.794;23.302;2022-09-09T05:03:34;14.35;;;9.65;;
70071;SDS011;57434;42.794;23.302;2022-09-09T05:08:31;13.48;;;9.65;;
70071;SDS011;57434;42.794;23.302;2022-09-09T05:10:59;16.55;;;10.25;;
70071;SDS011;57434;42.794;23.302;2022-09-09T05:13:28;18.63;;;10.00;;
70071;SDS011;57434;42.794;23.302;2022-09-09T05:15:54;15.32;;;10.63;;
70071;SDS011;57434;42.794;23.302;2022-09-09T05:18:20;14.70;;;10.20;;
70071;SDS011;57434;42.794;23.302;2022-09-09T05:20:47;14.30;;;10.15;;
70071;SDS011;57434;42.794;23.302;2022-09-09T05:23:14;15.98;;;10.85;;
70071;SDS011;57434;42.794;23.302;2022-09-09T05:25:41;16.42;;;11.02;;
70071;SDS011;57434;42.794;23.302;2022-09-09T05:28:07;14.98;;;11.10;;
70071;SDS011;57434;42.794;23.302;2022-09-09T05:30:37;16.60;;;10.40;;
70071;SDS011;57434;42.794;23.302;2022-09-09T05:33:03;17.50;;;10.63;;
70071;SDS011;57434;42.794;23.302;2022-09-09T05:35:32;20.23;;;11.05;;
70071;SDS011;57434;42.794;23.302;2022-09-09T05:38:00;16.13;;;11.02;;
70071;SDS011;57434;42.794;23.302;2022-09-09T05:40:27;15.13;;;10.45;;
70071;SDS011;57434;42.794;23.302;2022-09-09T05:42:52;13.80;;;10.50;;
70071;SDS011;57434;42.794;23.302;2022-09-09T05:45:18;14.30;;;9.70;;
70071;SDS011;57434;42.794;23.302;2022-09-09T05:47:44;13.90;;;9.93;;
70071;SDS011;57434;42.794;23.302;2022-09-09T05:50:18;16.15;;;9.30;;
70071;SDS011;57434;42.794;23.302;2022-09-09T05:52:46;16.23;;;9.57;;
70071;SDS011;57434;42.794;23.302;2022-09-09T05:55:17;12.93;;;9.68;;
70071;SDS011;57434;42.794;23.302;2022-09-09T05:57:47;14.77;;;9.88;;
70071;SDS011;57434;42.794;23.302;2022-09-09T06:00:17;17.88;;;9.40;;
70071;SDS011;57434;42.794;23.302;2022-09-09T06:02:43;13.05;;;9.30;;
70071;SDS011;57434;42.794;23.302;2022-09-09T06:05:17;14.73;;;9.97;;
70071;SDS011;57434;42.794;23.302;2022-09-09T06:07:44;15.23;;;10.30;;
70071;SDS011;57434;42.794;23.302;2022-09-09T06:10:12;12.57;;;9.02;;
70071;SDS011;57434;42.794;23.302;2022-09-09T06:12:40;13.77;;;9.80;;
70071;SDS011;57434;42.794;23.302;2022-09-09T06:15:06;16.03;;;8.93;;
70071;SDS011;57434;42.794;23.302;2022-09-09T06:17:34;13.70;;;8.77;;
70071;SDS011;57434;42.794;23.302;2022-09-09T06:20:00;11.80;;;8.70;;
70071;SDS011;57434;42.794;23.302;2022-09-09T06:22:26;11.63;;;7.60;;
70071;SDS011;57434;42.794;23.302;2022-09-09T06:24:51;12.43;;;7.83;;
70071;SDS011;57434;42.794;23.302;2022-09-09T06:27:18;10.23;;;6.93;;
70071;SDS011;57434;42.794;23.302;2022-09-09T06:29:44;10.25;;;6.95;;
70071;SDS011;57434;42.794;23.302;2022-09-09T06:32:10;9.60;;;6.18;;
70071;SDS011;57434;42.794;23.302;2022-09-09T06:34:38;9.93;;;6.53;;
70071;SDS011;57434;42.794;23.302;2022-09-09T06:37:04;10.52;;;5.85;;
70071;SDS011;57434;42.794;23.302;2022-09-09T06:39:32;8.43;;;5.68;;
70071;SDS011;57434;42.794;23.302;2022-09-09T06:41:58;8.90;;;6.13;;
70071;SDS011;57434;42.794;23.302;2022-09-09T06:44:24;12.23;;;5.53;;
70071;SDS011;57434;42.794;23.302;2022-09-09T06:46:52;10.07;;;5.70;;
70071;SDS011;57434;42.794;23.302;2022-09-09T06:49:18;8.93;;;5.57;;
70071;SDS011;57434;42.794;23.302;2022-09-09T06:51:44;9.48;;;5.82;;
70071;SDS011;57434;42.794;23.302;2022-09-09T06:54:10;8.90;;;6.07;;
70071;SDS011;57434;42.794;23.302;2022-09-09T06:56:38;9.70;;;6.35;;
70071;SDS011;57434;42.794;23.302;2022-09-09T06:59:08;8.88;;;5.75;;
70071;SDS011;57434;42.794;23.302;2022-09-09T07:01:52;8.30;;;5.35;;
70071;SDS011;57434;42.794;23.302;2022-09-09T07:04:26;9.23;;;5.10;;
70071;SDS011;57434;42.794;23.302;2022-09-09T07:07:09;7.80;;;5.00;;
70071;SDS011;57434;42.794;23.302;2022-09-09T07:09:47;8.25;;;5.43;;
70071;SDS011;57434;42.794;23.302;2022-09-09T07:12:14;8.52;;;5.05;;
70071;SDS011;57434;42.794;23.302;2022-09-09T07:14:42;9.27;;;5.85;;
70071;SDS011;57434;42.794;23.302;2022-09-09T07:17:08;10.68;;;5.32;;
70071;SDS011;57434;42.794;23.302;2022-09-09T07:19:34;11.57;;;5.90;;
70071;SDS011;57434;42.794;23.302;2022-09-09T07:22:00;9.30;;;5.90;;
70071;SDS011;57434;42.794;23.302;2022-09-09T07:24:27;11.75;;;5.68;;
70071;SDS011;57434;42.794;23.302;2022-09-09T07:26:55;9.32;;;6.00;;
70071;SDS011;57434;42.794;23.302;2022-09-09T07:29:21;9.60;;;6.00;;
70071;SDS011;57434;42.794;23.302;2022-09-09T07:31:47;11.23;;;5.88;;
70071;SDS011;57434;42.794;23.302;2022-09-09T07:34:13;8.80;;;5.77;;
70071;SDS011;57434;42.794;23.302;2022-09-09T07:36:39;8.82;;;5.18;;
70071;SDS011;57434;42.794;23.302;2022-09-09T07:39:11;11.27;;;5.68;;
70071;SDS011;57434;42.794;23.302;2022-09-09T07:41:39;9.80;;;5.72;;
70071;SDS011;57434;42.794;23.302;2022-09-09T07:44:10;8.55;;;6.00;;
70071;SDS011;57434;42.794;23.302;2022-09-09T07:46:38;10.00;;;6.00;;
70071;SDS011;57434;42.794;23.302;2022-09-09T07:49:05;11.15;;;6.13;;
70071;SDS011;57434;42.794;23.302;2022-09-09T07:51:32;33.00;;;9.65;;
70071;SDS011;57434;42.794;23.302;2022-09-09T07:54:00;10.68;;;5.88;;
70071;SDS011;57434;42.794;23.302;2022-09-09T07:56:28;8.77;;;5.45;;
70071;SDS011;57434;42.794;23.302;2022-09-09T07:58:55;7.83;;;5.50;;
70071;SDS011;57434;42.794;23.302;2022-09-09T08:01:26;9.07;;;5.47;;
70071;SDS011;57434;42.794;23.302;2022-09-09T08:04:01;7.88;;;5.13;;
70071;SDS011;57434;42.794;23.302;2022-09-09T08:06:30;9.77;;;5.13;;
70071;SDS011;57434;42.794;23.302;2022-09-09T08:09:00;8.50;;;4.88;;
70071;SDS011;57434;42.794;23.302;2022-09-09T08:11:28;10.03;;;5.83;;
70071;SDS011;57434;42.794;23.302;2022-09-09T08:13:57;8.13;;;5.63;;
70071;SDS011;57434;42.794;23.302;2022-09-09T08:16:24;12.60;;;5.22;;
70071;SDS011;57434;42.794;23.302;2022-09-09T08:18:55;11.15;;;5.40;;
70071;SDS011;57434;42.794;23.302;2022-09-09T08:21:26;11.02;;;5.32;;
70071;SDS011;57434;42.794;23.302;2022-09-09T08:23:58;8.57;;;4.90;;
70071;SDS011;57434;42.794;23.302;2022-09-09T08:26:26;8.30;;;4.88;;
70071;SDS011;57434;42.794;23.302;2022-09-09T08:28:57;10.55;;;5.22;;
70071;SDS011;57434;42.794;23.302;2022-09-09T08:31:26;11.10;;;5.15;;
70071;SDS011;57434;42.794;23.302;2022-09-09T08:33:59;7.38;;;5.05;;
70071;SDS011;57434;42.794;23.302;2022-09-09T08:36:29;10.07;;;5.27;;
70071;SDS011;57434;42.794;23.302;2022-09-09T08:38:58;9.20;;;5.10;;
70071;SDS011;57434;42.794;23.302;2022-09-09T08:55:25;8.48;;;4.85;;
70071;SDS011;57434;42.794;23.302;2022-09-09T09:00:45;10.13;;;5.38;;
70071;SDS011;57434;42.794;23.302;2022-09-09T09:11:50;8.82;;;5.50;;
70071;SDS011;57434;42.794;23.302;2022-09-09T09:14:23;11.75;;;5.65;;
70071;SDS011;57434;42.794;23.302;2022-09-09T09:16:57;7.90;;;5.50;;
70071;SDS011;57434;42.794;23.302;2022-09-09T09:19:25;12.32;;;5.75;;
70071;SDS011;57434;42.794;23.302;2022-09-09T09:21:55;10.30;;;5.30;;
70071;SDS011;57434;42.794;23.302;2022-09-09T09:24:56;8.05;;;5.05;;
70071;SDS011;57434;42.794;23.302;2022-09-09T09:27:31;9.95;;;5.97;;
70071;SDS011;57434;42.794;23.302;2022-09-09T09:30:21;9.80;;;5.50;;
70071;SDS011;57434;42.794;23.302;2022-09-09T09:32:53;8.98;;;5.90;;
70071;SDS011;57434;42.794;23.302;2022-09-09T09:35:23;7.68;;;5.47;;
70071;SDS011;57434;42.794;23.302;2022-09-09T09:37:49;13.02;;;6.05;;
70071;SDS011;57434;42.794;23.302;2022-09-09T09:40:19;9.67;;;6.07;;
70071;SDS011;57434;42.794;23.302;2022-09-09T09:43:16;8.95;;;5.80;;
70071;SDS011;57434;42.794;23.302;2022-09-09T09:45:44;9.45;;;5.50;;
70071;SDS011;57434;42.794;23.302;2022-09-09T09:48:13;11.98;;;6.20;;
70071;SDS011;57434;42.794;23.302;2022-09-09T09:50:53;10.38;;;6.50;;
70071;SDS011;57434;42.794;23.302;2022-09-09T09:53:29;9.17;;;5.70;;
70071;SDS011;57434;42.794;23.302;2022-09-09T09:56:03;11.43;;;5.55;;
70071;SDS011;57434;42.794;23.302;2022-09-09T10:01:29;10.15;;;5.57;;
70071;SDS011;57434;42.794;23.302;2022-09-09T10:04:18;11.10;;;5.80;;
70071;SDS011;57434;42.794;23.302;2022-09-09T10:06:48;9.40;;;6.40;;
70071;SDS011;57434;42.794;23.302;2022-09-09T10:12:07;11.73;;;5.93;;
70071;SDS011;57434;42.794;23.302;2022-09-09T10:22:35;10.90;;;6.32;;
70071;SDS011;57434;42.794;23.302;2022-09-09T10:25:17;10.05;;;7.10;;
70071;SDS011;57434;42.794;23.302;2022-09-09T10:33:46;9.87;;;6.13;;
70071;SDS011;57434;42.794;23.302;2022-09-09T10:36:33;10.25;;;6.20;;
70071;SDS011;57434;42.794;23.302;2022-09-09T10:39:04;10.70;;;6.20;;
70071;SDS011;57434;42.794;23.302;2022-09-09T10:41:43;9.65;;;5.93;;
70071;SDS011;57434;42.794;23.302;2022-09-09T10:44:17;9.40;;;5.97;;
70071;SDS011;57434;42.794;23.302;2022-09-09T10:47:10;9.97;;;6.33;;
70071;SDS011;57434;42.794;23.302;2022-09-09T10:52:36;11.63;;;6.82;;
70071;SDS011;57434;42.794;23.302;2022-09-09T10:55:24;9.73;;;6.30;;
70071;SDS011;57434;42.794;23.302;2022-09-09T10:57:55;13.70;;;6.80;;
70071;SDS011;57434;42.794;23.302;2022-09-09T11:03:16;12.85;;;6.90;;
70071;SDS011;57434;42.794;23.302;2022-09-09T11:05:46;11.10;;;6.90;;
70071;SDS011;57434;42.794;23.302;2022-09-09T11:08:18;10.20;;;6.70;;
70071;SDS011;57434;42.794;23.302;2022-09-09T11:10:58;14.73;;;7.13;;
70071;SDS011;57434;42.794;23.302;2022-09-09T11:13:45;12.37;;;7.27;;
70071;SDS011;57434;42.794;23.302;2022-09-09T11:16:27;9.40;;;7.07;;
70071;SDS011;57434;42.794;23.302;2022-09-09T11:21:38;11.82;;;7.30;;
70071;SDS011;57434;42.794;23.302;2022-09-09T11:24:16;12.75;;;6.90;;
70071;SDS011;57434;42.794;23.302;2022-09-09T11:27:22;10.23;;;6.73;;
70071;SDS011;57434;42.794;23.302;2022-09-09T11:37:55;12.70;;;7.03;;
70071;SDS011;57434;42.794;23.302;2022-09-09T11:40:28;10.07;;;7.17;;
70071;SDS011;57434;42.794;23.302;2022-09-09T11:43:07;13.23;;;7.38;;
70071;SDS011;57434;42.794;23.302;2022-09-09T11:45:42;16.17;;;7.75;;
70071;SDS011;57434;42.794;23.302;2022-09-09T11:48:25;12.02;;;7.50;;
70071;SDS011;57434;42.794;23.302;2022-09-09T11:51:04;11.65;;;7.60;;
70071;SDS011;57434;42.794;23.302;2022-09-09T11:53:49;9.93;;;6.90;;
70071;SDS011;57434;42.794;23.302;2022-09-09T11:56:25;11.10;;;7.57;;
70071;SDS011;57434;42.794;23.302;2022-09-09T11:58:59;11.23;;;7.85;;
70071;SDS011;57434;42.794;23.302;2022-09-09T12:01:58;13.60;;;7.72;;
70071;SDS011;57434;42.794;23.302;2022-09-09T12:05:09;12.63;;;7.18;;
70071;SDS011;57434;42.794;23.302;2022-09-09T12:07:53;11.23;;;7.70;;
70071;SDS011;57434;42.794;23.302;2022-09-09T12:10:30;15.75;;;7.57;;
70071;SDS011;57434;42.794;23.302;2022-09-09T12:15:55;11.40;;;6.88;;
70071;SDS011;57434;42.794;23.302;2022-09-09T12:18:33;11.75;;;7.45;;
70071;SDS011;57434;42.794;23.302;2022-09-09T12:21:16;12.47;;;7.70;;
70071;SDS011;57434;42.794;23.302;2022-09-09T12:23:50;10.32;;;7.18;;
70071;SDS011;57434;42.794;23.302;2022-09-09T12:26:29;15.77;;;8.68;;
70071;SDS011;57434;42.794;23.302;2022-09-09T12:29:04;11.45;;;7.68;;
70071;SDS011;57434;42.794;23.302;2022-09-09T12:34:47;11.90;;;8.03;;
70071;SDS011;57434;42.794;23.302;2022-09-09T12:37:38;13.95;;;8.07;;
70071;SDS011;57434;42.794;23.302;2022-09-09T12:40:20;11.38;;;7.82;;
70071;SDS011;57434;42.794;23.302;2022-09-09T12:42:48;12.18;;;7.90;;
70071;SDS011;57434;42.794;23.302;2022-09-09T12:45:17;14.10;;;8.23;;
70071;SDS011;57434;42.794;23.302;2022-09-09T12:47:50;14.67;;;7.83;;
70071;SDS011;57434;42.794;23.302;2022-09-09T12:50:47;10.82;;;7.75;;
70071;SDS011;57434;42.794;23.302;2022-09-09T12:53:21;14.00;;;8.25;;
70071;SDS011;57434;42.794;23.302;2022-09-09T12:55:54;12.00;;;7.35;;
70071;SDS011;57434;42.794;23.302;2022-09-09T12:58:23;11.48;;;7.70;;
70071;SDS011;57434;42.794;23.302;2022-09-09T13:00:51;12.03;;;7.60;;
70071;SDS011;57434;42.794;23.302;2022-09-09T13:03:22;11.38;;;7.75;;
70071;SDS011;57434;42.794;23.302;2022-09-09T13:05:48;12.18;;;7.60;;
70071;SDS011;57434;42.794;23.302;2022-09-09T13:08:15;15.20;;;7.57;;
70071;SDS011;57434;42.794;23.302;2022-09-09T13:10:56;15.88;;;8.07;;
70071;SDS011;57434;42.794;23.302;2022-09-09T13:13:34;12.03;;;7.57;;
70071;SDS011;57434;42.794;23.302;2022-09-09T13:16:05;11.52;;;7.13;;
70071;SDS011;57434;42.794;23.302;2022-09-09T13:18:42;10.55;;;6.15;;
70071;SDS011;57434;42.794;23.302;2022-09-09T13:21:08;10.52;;;5.10;;
70071;SDS011;57434;42.794;23.302;2022-09-09T13:23:35;11.50;;;5.93;;
70071;SDS011;57434;42.794;23.302;2022-09-09T13:26:06;10.13;;;4.93;;
70071;SDS011;57434;42.794;23.302;2022-09-09T13:28:46;9.15;;;5.43;;
70071;SDS011;57434;42.794;23.302;2022-09-09T13:31:35;9.98;;;5.75;;
70071;SDS011;57434;42.794;23.302;2022-09-09T13:34:10;11.48;;;5.35;;
70071;SDS011;57434;42.794;23.302;2022-09-09T13:36:39;12.63;;;5.00;;
70071;SDS011;57434;42.794;23.302;2022-09-09T13:39:14;10.90;;;5.30;;
70071;SDS011;57434;42.794;23.302;2022-09-09T13:41:43;9.70;;;5.25;;
70071;SDS011;57434;42.794;23.302;2022-09-09T13:44:21;11.07;;;5.22;;
70071;SDS011;57434;42.794;23.302;2022-09-09T13:47:03;10.82;;;5.10;;
70071;SDS011;57434;42.794;23.302;2022-09-09T13:49:43;10.68;;;5.50;;
70071;SDS011;57434;42.794;23.302;2022-09-09T13:52:11;8.50;;;4.80;;
70071;SDS011;57434;42.794;23.302;2022-09-09T13:54:39;8.60;;;5.47;;
70071;SDS011;57434;42.794;23.302;2022-09-09T13:57:12;10.93;;;5.15;;
70071;SDS011;57434;42.794;23.302;2022-09-09T13:59:50;9.02;;;4.65;;
70071;SDS011;57434;42.794;23.302;2022-09-09T14:02:21;9.18;;;4.82;;
70071;SDS011;57434;42.794;23.302;2022-09-09T14:04:50;13.97;;;5.20;;
70071;SDS011;57434;42.794;23.302;2022-09-09T14:07:22;11.20;;;5.32;;
70071;SDS011;57434;42.794;23.302;2022-09-09T14:09:48;10.88;;;5.38;;
70071;SDS011;57434;42.794;23.302;2022-09-09T14:12:17;10.95;;;5.05;;
70071;SDS011;57434;42.794;23.302;2022-09-09T14:14:46;14.95;;;4.82;;
70071;SDS011;57434;42.794;23.302;2022-09-09T14:17:15;9.73;;;5.20;;
70071;SDS011;57434;42.794;23.302;2022-09-09T14:19:42;11.18;;;5.15;;
70071;SDS011;57434;42.794;23.302;2022-09-09T14:22:09;10.65;;;5.32;;
70071;SDS011;57434;42.794;23.302;2022-09-09T14:24:35;9.40;;;5.13;;
70071;SDS011;57434;42.794;23.302;2022-09-09T14:27:01;10.85;;;4.28;;
70071;SDS011;57434;42.794;23.302;2022-09-09T14:29:27;12.63;;;5.27;;
70071;SDS011;57434;42.794;23.302;2022-09-09T14:31:53;9.48;;;4.95;;
70071;SDS011;57434;42.794;23.302;2022-09-09T14:34:19;12.23;;;4.45;;
70071;SDS011;57434;42.794;23.302;2022-09-09T14:36:48;14.67;;;5.03;;
70071;SDS011;57434;42.794;23.302;2022-09-09T14:39:16;11.55;;;4.60;;
70071;SDS011;57434;42.794;23.302;2022-09-09T14:41:42;10.13;;;4.43;;
70071;SDS011;57434;42.794;23.302;2022-09-09T14:44:08;11.18;;;4.35;;
70071;SDS011;57434;42.794;23.302;2022-09-09T14:46:34;11.10;;;4.60;;
70071;SDS011;57434;42.794;23.302;2022-09-09T14:48:59;9.20;;;4.72;;
70071;SDS011;57434;42.794;23.302;2022-09-09T14:51:28;9.20;;;4.72;;
70071;SDS011;57434;42.794;23.302;2022-09-09T14:53:54;9.80;;;4.80;;
70071;SDS011;57434;42.794;23.302;2022-09-09T14:56:23;10.23;;;4.65;;
70071;SDS011;57434;42.794;23.302;2022-09-09T14:58:53;10.10;;;5.30;;
70071;SDS011;57434;42.794;23.302;2022-09-09T15:01:20;11.40;;;5.15;;
70071;SDS011;57434;42.794;23.302;2022-09-09T15:03:51;9.60;;;4.80;;
70071;SDS011;57434;42.794;23.302;2022-09-09T15:06:20;10.93;;;5.17;;
70071;SDS011;57434;42.794;23.302;2022-09-09T15:08:47;9.73;;;4.55;;
70071;SDS011;57434;42.794;23.302;2022-09-09T15:11:16;11.35;;;5.18;;
70071;SDS011;57434;42.794;23.302;2022-09-09T15:13:42;9.60;;;5.13;;
70071;SDS011;57434;42.794;23.302;2022-09-09T15:16:10;12.07;;;5.20;;
70071;SDS011;57434;42.794;23.302;2022-09-09T15:18:40;9.15;;;5.13;;
70071;SDS011;57434;42.794;23.302;2022-09-09T15:21:17;13.80;;;5.38;;
70071;SDS011;57434;42.794;23.302;2022-09-09T15:23:46;11.77;;;5.20;;
70071;SDS011;57434;42.794;23.302;2022-09-09T15:26:13;10.70;;;5.40;;
70071;SDS011;57434;42.794;23.302;2022-09-09T15:28:40;8.83;;;5.07;;
70071;SDS011;57434;42.794;23.302;2022-09-09T15:31:09;9.48;;;5.07;;
70071;SDS011;57434;42.794;23.302;2022-09-09T15:33:39;8.38;;;5.63;;
70071;SDS011;57434;42.794;23.302;2022-09-09T15:36:13;9.82;;;5.20;;
70071;SDS011;57434;42.794;23.302;2022-09-09T15:38:39;10.27;;;5.20;;
70071;SDS011;57434;42.794;23.302;2022-09-09T15:41:05;11.80;;;5.33;;
70071;SDS011;57434;42.794;23.302;2022-09-09T15:43:31;14.40;;;6.20;;
70071;SDS011;57434;42.794;23.302;2022-09-09T15:45:58;11.77;;;5.77;;
70071;SDS011;57434;42.794;23.302;2022-09-09T15:48:33;10.45;;;5.30;;
70071;SDS011;57434;42.794;23.302;2022-09-09T15:51:03;11.63;;;5.93;;
70071;SDS011;57434;42.794;23.302;2022-09-09T15:53:30;10.80;;;5.85;;
70071;SDS011;57434;42.794;23.302;2022-09-09T15:55:59;11.83;;;5.60;;
70071;SDS011;57434;42.794;23.302;2022-09-09T15:58:25;10.77;;;5.70;;
70071;SDS011;57434;42.794;23.302;2022-09-09T16:01:01;12.98;;;5.78;;
70071;SDS011;57434;42.794;23.302;2022-09-09T16:03:29;9.40;;;5.93;;
70071;SDS011;57434;42.794;23.302;2022-09-09T16:05:59;10.98;;;5.22;;
70071;SDS011;57434;42.794;23.302;2022-09-09T16:08:25;9.60;;;5.60;;
70071;SDS011;57434;42.794;23.302;2022-09-09T16:10:56;11.02;;;5.35;;
70071;SDS011;57434;42.794;23.302;2022-09-09T16:13:37;10.98;;;5.80;;
70071;SDS011;57434;42.794;23.302;2022-09-09T16:16:07;13.97;;;5.77;;
70071;SDS011;57434;42.794;23.302;2022-09-09T16:18:38;10.32;;;5.75;;
70071;SDS011;57434;42.794;23.302;2022-09-09T16:21:06;13.77;;;5.90;;
70071;SDS011;57434;42.794;23.302;2022-09-09T16:23:33;16.20;;;5.95;;
70071;SDS011;57434;42.794;23.302;2022-09-09T16:26:00;14.73;;;5.00;;
70071;SDS011;57434;42.794;23.302;2022-09-09T16:28:27;14.23;;;7.30;;
70071;SDS011;57434;42.794;23.302;2022-09-09T16:30:53;13.95;;;6.72;;
70071;SDS011;57434;42.794;23.302;2022-09-09T16:33:19;12.25;;;5.60;;
70071;SDS011;57434;42.794;23.302;2022-09-09T16:35:45;17.70;;;5.95;;
70071;SDS011;57434;42.794;23.302;2022-09-09T16:38:11;13.47;;;6.40;;
70071;SDS011;57434;42.794;23.302;2022-09-09T16:40:37;12.85;;;6.70;;
70071;SDS011;57434;42.794;23.302;2022-09-09T16:43:04;10.63;;;5.53;;
70071;SDS011;57434;42.794;23.302;2022-09-09T16:45:30;14.18;;;5.82;;
70071;SDS011;57434;42.794;23.302;2022-09-09T16:47:57;12.67;;;4.83;;
70071;SDS011;57434;42.794;23.302;2022-09-09T16:50:25;16.23;;;5.28;;
70071;SDS011;57434;42.794;23.302;2022-09-09T16:52:51;10.80;;;4.65;;
70071;SDS011;57434;42.794;23.302;2022-09-09T16:55:18;8.25;;;5.07;;
70071;SDS011;57434;42.794;23.302;2022-09-09T16:57:48;9.07;;;4.20;;
70071;SDS011;57434;42.794;23.302;2022-09-09T17:00:14;10.97;;;5.23;;
70071;SDS011;57434;42.794;23.302;2022-09-09T17:02:44;13.93;;;5.20;;
70071;SDS011;57434;42.794;23.302;2022-09-09T17:05:10;9.57;;;4.53;;
70071;SDS011;57434;42.794;23.302;2022-09-09T17:07:37;11.73;;;4.70;;
70071;SDS011;57434;42.794;23.302;2022-09-09T17:10:04;10.75;;;4.95;;
70071;SDS011;57434;42.794;23.302;2022-09-09T17:12:31;11.77;;;5.00;;
70071;SDS011;57434;42.794;23.302;2022-09-09T17:14:57;10.80;;;4.95;;
70071;SDS011;57434;42.794;23.302;2022-09-09T17:17:25;9.10;;;4.55;;
70071;SDS011;57434;42.794;23.302;2022-09-09T17:19:51;13.67;;;4.73;;
70071;SDS011;57434;42.794;23.302;2022-09-09T17:22:17;10.68;;;4.40;;
70071;SDS011;57434;42.794;23.302;2022-09-09T17:24:45;11.38;;;5.13;;
70071;SDS011;57434;42.794;23.302;2022-09-09T17:27:11;12.13;;;5.32;;
70071;SDS011;57434;42.794;23.302;2022-09-09T17:29:38;9.52;;;4.82;;
70071;SDS011;57434;42.794;23.302;2022-09-09T17:32:04;10.33;;;4.60;;
70071;SDS011;57434;42.794;23.302;2022-09-09T17:34:32;12.77;;;6.22;;
70071;SDS011;57434;42.794;23.302;2022-09-09T17:36:59;12.40;;;4.55;;
70071;SDS011;57434;42.794;23.302;2022-09-09T17:39:24;17.52;;;4.90;;
70071;SDS011;57434;42.794;23.302;2022-09-09T17:41:51;10.23;;;5.00;;